sensor_id;sensor_type;location;lat;lon;timestamp;pressure;altitude;pressure_sealevel;temperature;humidity
13734;BME280;43298;52.560;13.508;2023-04-19T00:00:44;102189.19;;;6.85;100.00
13734;BME280;43298;52.560;13.508;2023-04-19T00:03:10;102189.19;;;6.83;100.00
13734;BME280;43298;52.560;13.508;2023-04-19T00:05:36;102190.06;;;6.82;100.00
13734;BME280;43298;52.560;13.508;2023-04-19T00:08:06;102188.34;;;6.78;100.00
13734;BME280;43298;52.560;13.508;2023-04-19T00:10:32;102184.91;;;6.79;100.00
13734;BME280;43298;52.560;13.508;2023-04-19T00:13:00;102184.03;;;6.83;100.00
13734;BME280;43298;52.560;13.508;2023-04-19T00:15:26;102175.50;;;6.83;100.00
13734;BME280;43298;52.560;13.508;2023-04-19T00:17:52;102173.75;;;6.88;100.00
13734;BME280;43298;52.560;13.508;2023-04-19T00:20:19;102178.06;;;6.81;100.00
13734;BME280;43298;52.560;13.508;2023-04-19T00:22:45;102174.63;;;6.87;100.00
13734;BME280;43298;52.560;13.508;2023-04-19T00:25:11;102166.94;;;6.79;100.00
13734;BME280;43298;52.560;13.508;2023-04-19T00:27:37;102167.81;;;6.74;100.00
13734;BME280;43298;52.560;13.508;2023-04-19T00:30:03;102172.09;;;6.73;100.00
13734;BME280;43298;52.560;13.508;2023-04-19T00:32:29;102172.09;;;6.73;100.00
13734;BME280;43298;52.560;13.508;2023-04-19T00:34:55;102161.84;;;6.70;100.00
13734;BME280;43298;52.560;13.508;2023-04-19T00:37:21;102170.38;;;6.74;100.00
13734;BME280;43298;52.560;13.508;2023-04-19T00:39:47;102174.69;;;6.69;100.00
13734;BME280;43298;52.560;13.508;2023-04-19T00:42:12;102174.69;;;6.66;100.00
13734;BME280;43298;52.560;13.508;2023-04-19T00:44:38;102170.41;;;6.60;100.00
13734;BME280;43298;52.560;13.508;2023-04-19T00:47:04;102165.28;;;6.51;100.00
13734;BME280;43298;52.560;13.508;2023-04-19T00:49:31;102168.72;;;6.52;100.00
13734;BME280;43298;52.560;13.508;2023-04-19T00:51:56;102172.16;;;6.43;100.00
13734;BME280;43298;52.560;13.508;2023-04-19T00:54:22;102166.19;;;6.41;100.00
13734;BME280;43298;52.560;13.508;2023-04-19T00:56:49;102167.06;;;6.33;100.00
13734;BME280;43298;52.560;13.508;2023-04-19T00:59:16;102169.63;;;6.23;100.00
13734;BME280;43298;52.560;13.508;2023-04-19T01:01:43;102170.50;;;6.21;100.00
13734;BME280;43298;52.560;13.508;2023-04-19T01:04:09;102167.06;;;6.13;100.00
13734;BME280;43298;52.560;13.508;2023-04-19T01:06:35;102172.22;;;6.14;100.00
13734;BME280;43298;52.560;13.508;2023-04-19T01:09:02;102170.50;;;6.03;100.00
13734;BME280;43298;52.560;13.508;2023-04-19T01:11:29;102174.78;;;5.92;100.00
13734;BME280;43298;52.560;13.508;2023-04-19T01:13:55;102172.16;;;5.80;100.00
13734;BME280;43298;52.560;13.508;2023-04-19T01:16:24;102167.91;;;5.70;100.00
13734;BME280;43298;52.560;13.508;2023-04-19T01:18:51;102167.00;;;5.63;100.00
13734;BME280;43298;52.560;13.508;2023-04-19T01:21:17;102167.88;;;5.61;100.00
13734;BME280;43298;52.560;13.508;2023-04-19T01:23:43;102164.44;;;5.53;100.00
13734;BME280;43298;52.560;13.508;2023-04-19T01:26:10;102162.69;;;5.40;100.00
13734;BME280;43298;52.560;13.508;2023-04-19T01:28:36;102166.94;;;5.27;100.00
13734;BME280;43298;52.560;13.508;2023-04-19T01:31:02;102165.25;;;5.29;100.00
13734;BME280;43298;52.560;13.508;2023-04-19T01:33:28;102155.84;;;5.25;100.00
13734;BME280;43298;52.560;13.508;2023-04-19T01:35:54;102159.25;;;5.29;100.00
13734;BME280;43298;52.560;13.508;2023-04-19T01:38:19;102160.94;;;5.30;100.00
13734;BME280;43298;52.560;13.508;2023-04-19T01:40:45;102164.38;;;5.26;100.00
13734;BME280;43298;52.560;13.508;2023-04-19T01:43:16;102160.97;;;5.25;100.00
13734;BME280;43298;52.560;13.508;2023-04-19T01:45:43;102163.53;;;5.22;100.00
13734;BME280;43298;52.560;13.508;2023-04-19T01:48:08;102155.78;;;5.15;100.00
13734;BME280;43298;52.560;13.508;2023-04-19T01:50:34;102159.19;;;5.11;100.00
13734;BME280;43298;52.560;13.508;2023-04-19T01:53:00;102158.31;;;5.09;100.00
13734;BME280;43298;52.560;13.508;2023-04-19T01:55:26;102150.63;;;5.01;100.00
13734;BME280;43298;52.560;13.508;2023-04-19T01:57:52;102149.75;;;4.93;100.00
13734;BME280;43298;52.560;13.508;2023-04-19T02:00:19;102140.31;;;4.92;100.00
13734;BME280;43298;52.560;13.508;2023-04-19T02:02:45;102146.28;;;4.88;100.00
13734;BME280;43298;52.560;13.508;2023-04-19T02:05:11;102142.84;;;4.88;100.00
13734;BME280;43298;52.560;13.508;2023-04-19T02:07:37;102142.84;;;4.82;100.00
13734;BME280;43298;52.560;13.508;2023-04-19T02:10:04;102139.44;;;4.84;100.00
13734;BME280;43298;52.560;13.508;2023-04-19T02:12:32;102141.19;;;4.90;100.00
13734;BME280;43298;52.560;13.508;2023-04-19T02:15:00;102137.75;;;4.88;100.00
13734;BME280;43298;52.560;13.508;2023-04-19T02:17:29;102138.56;;;4.75;100.00
13734;BME280;43298;52.560;13.508;2023-04-19T02:19:55;102129.09;;;4.63;100.00
13734;BME280;43298;52.560;13.508;2023-04-19T02:22:21;102126.59;;;4.77;100.00
13734;BME280;43298;52.560;13.508;2023-04-19T02:24:50;102126.59;;;4.77;100.00
13734;BME280;43298;52.560;13.508;2023-04-19T02:27:16;102128.31;;;4.78;100.00
13734;BME280;43298;52.560;13.508;2023-04-19T02:29:43;102118.00;;;4.64;100.00
13734;BME280;43298;52.560;13.508;2023-04-19T02:32:11;102121.44;;;4.68;100.00
13734;BME280;43298;52.560;13.508;2023-04-19T02:34:37;102118.00;;;4.61;100.00
13734;BME280;43298;52.560;13.508;2023-04-19T02:37:03;102111.13;;;4.59;100.00
13734;BME280;43298;52.560;13.508;2023-04-19T02:39:29;102108.59;;;4.60;100.00
13734;BME280;43298;52.560;13.508;2023-04-19T02:41:55;102117.16;;;4.65;100.00
13734;BME280;43298;52.560;13.508;2023-04-19T02:44:21;102107.69;;;4.51;100.00
13734;BME280;43298;52.560;13.508;2023-04-19T02:46:50;102105.09;;;4.45;100.00
13734;BME280;43298;52.560;13.508;2023-04-19T02:49:17;102103.41;;;4.45;100.00
13734;BME280;43298;52.560;13.508;2023-04-19T02:51:43;102097.41;;;4.42;100.00
13734;BME280;43298;52.560;13.508;2023-04-19T02:54:11;102098.34;;;4.60;100.00
13734;BME280;43298;52.560;13.508;2023-04-19T02:56:36;102093.19;;;4.53;100.00
13734;BME280;43298;52.560;13.508;2023-04-19T02:59:03;102088.91;;;4.46;100.00
13734;BME280;43298;52.560;13.508;2023-04-19T03:01:30;102085.44;;;4.38;100.00
13734;BME280;43298;52.560;13.508;2023-04-19T03:03:56;102083.69;;;4.31;100.00
13734;BME280;43298;52.560;13.508;2023-04-19T03:06:22;102089.59;;;4.19;100.00
13734;BME280;43298;52.560;13.508;2023-04-19T03:08:48;102088.75;;;4.20;100.00
13734;BME280;43298;52.560;13.508;2023-04-19T03:11:15;102077.59;;;4.09;100.00
13734;BME280;43298;52.560;13.508;2023-04-19T03:13:42;102073.28;;;4.01;100.00
13734;BME280;43298;52.560;13.508;2023-04-19T03:16:08;102078.47;;;4.10;100.00
13734;BME280;43298;52.560;13.508;2023-04-19T03:18:34;102069.00;;;4.04;100.00
13734;BME280;43298;52.560;13.508;2023-04-19T03:21:01;102067.38;;;4.11;100.00
13734;BME280;43298;52.560;13.508;2023-04-19T03:23:27;102074.16;;;4.06;100.00
13734;BME280;43298;52.560;13.508;2023-04-19T03:25:53;102063.97;;;4.15;100.00
13734;BME280;43298;52.560;13.508;2023-04-19T03:28:19;102069.94;;;4.11;100.00
13734;BME280;43298;52.560;13.508;2023-04-19T03:30:45;102062.25;;;4.09;100.00
13734;BME280;43298;52.560;13.508;2023-04-19T03:33:11;102060.50;;;4.04;100.00
13734;BME280;43298;52.560;13.508;2023-04-19T03:35:37;102058.78;;;4.04;100.00
13734;BME280;43298;52.560;13.508;2023-04-19T03:38:03;102051.91;;;3.91;100.00
13734;BME280;43298;52.560;13.508;2023-04-19T03:40:32;102048.44;;;3.88;100.00
13734;BME280;43298;52.560;13.508;2023-04-19T03:42:57;102053.66;;;3.98;100.00
13734;BME280;43298;52.560;13.508;2023-04-19T03:45:23;102052.84;;;4.11;100.00
13734;BME280;43298;52.560;13.508;2023-04-19T03:47:49;102051.06;;;3.97;100.00
13734;BME280;43298;52.560;13.508;2023-04-19T03:50:15;102049.28;;;3.87;100.00
13734;BME280;43298;52.560;13.508;2023-04-19T03:52:41;102046.81;;;3.99;100.00
13734;BME280;43298;52.560;13.508;2023-04-19T03:55:07;102045.88;;;3.88;100.00
13734;BME280;43298;52.560;13.508;2023-04-19T03:57:33;102045.84;;;3.77;100.00
13734;BME280;43298;52.560;13.508;2023-04-19T04:00:00;102037.19;;;3.63;100.00
13734;BME280;43298;52.560;13.508;2023-04-19T04:02:26;102039.09;;;3.90;100.00
13734;BME280;43298;52.560;13.508;2023-04-19T04:04:54;102040.78;;;3.91;100.00
13734;BME280;43298;52.560;13.508;2023-04-19T04:07:20;102035.66;;;3.88;100.00
13734;BME280;43298;52.560;13.508;2023-04-19T04:09:48;102041.66;;;3.90;100.00
13734;BME280;43298;52.560;13.508;2023-04-19T04:12:14;102035.66;;;3.88;100.00
13734;BME280;43298;52.560;13.508;2023-04-19T04:14:40;102038.22;;;3.85;100.00
13734;BME280;43298;52.560;13.508;2023-04-19T04:17:05;102035.63;;;3.82;100.00
13734;BME280;43298;52.560;13.508;2023-04-19T04:19:32;102038.19;;;3.80;100.00
13734;BME280;43298;52.560;13.508;2023-04-19T04:21:57;102039.06;;;3.87;100.00
13734;BME280;43298;52.560;13.508;2023-04-19T04:24:23;102039.97;;;3.90;100.00
13734;BME280;43298;52.560;13.508;2023-04-19T04:26:50;102037.38;;;3.86;100.00
13734;BME280;43298;52.560;13.508;2023-04-19T04:29:16;102030.53;;;3.89;100.00
13734;BME280;43298;52.560;13.508;2023-04-19T04:31:42;102033.09;;;3.83;100.00
13734;BME280;43298;52.560;13.508;2023-04-19T04:34:08;102033.06;;;3.82;100.00
13734;BME280;43298;52.560;13.508;2023-04-19T04:36:35;102027.94;;;3.80;100.00
13734;BME280;43298;52.560;13.508;2023-04-19T04:39:04;102031.47;;;3.97;100.00
13734;BME280;43298;52.560;13.508;2023-04-19T04:41:31;102032.28;;;3.96;100.00
13734;BME280;43298;52.560;13.508;2023-04-19T04:43:59;102028.91;;;3.99;100.00
13734;BME280;43298;52.560;13.508;2023-04-19T04:46:29;102030.66;;;4.03;100.00
13734;BME280;43298;52.560;13.508;2023-04-19T04:48:54;102031.53;;;4.08;100.00
13734;BME280;43298;52.560;13.508;2023-04-19T04:51:20;102024.69;;;4.11;100.00
13734;BME280;43298;52.560;13.508;2023-04-19T04:53:46;102023.00;;;4.12;100.00
13734;BME280;43298;52.560;13.508;2023-04-19T04:56:12;102031.56;;;4.18;100.00
13734;BME280;43298;52.560;13.508;2023-04-19T04:58:37;102023.03;;;4.16;100.00
13734;BME280;43298;52.560;13.508;2023-04-19T05:01:03;102023.06;;;4.24;100.00
13734;BME280;43298;52.560;13.508;2023-04-19T05:03:29;102023.94;;;4.29;100.00
13734;BME280;43298;52.560;13.508;2023-04-19T05:05:55;102029.06;;;4.30;100.00
13734;BME280;43298;52.560;13.508;2023-04-19T05:08:21;102026.56;;;4.41;100.00
13734;BME280;43298;52.560;13.508;2023-04-19T05:10:47;102013.75;;;4.42;100.00
13734;BME280;43298;52.560;13.508;2023-04-19T05:13:12;102018.00;;;4.43;100.00
13734;BME280;43298;52.560;13.508;2023-04-19T05:15:38;102015.50;;;4.54;100.00
13734;BME280;43298;52.560;13.508;2023-04-19T05:18:05;102012.97;;;4.63;100.00
13734;BME280;43298;52.560;13.508;2023-04-19T05:20:30;102014.69;;;4.68;100.00
13734;BME280;43298;52.560;13.508;2023-04-19T05:22:59;102011.31;;;4.74;100.00
13734;BME280;43298;52.560;13.508;2023-04-19T05:25:26;102002.78;;;4.81;100.00
13734;BME280;43298;52.560;13.508;2023-04-19T05:27:52;102001.09;;;4.87;100.00
13734;BME280;43298;52.560;13.508;2023-04-19T05:30:18;101990.84;;;4.92;100.00
13734;BME280;43298;52.560;13.508;2023-04-19T05:32:44;101989.16;;;5.01;100.00
13734;BME280;43298;52.560;13.508;2023-04-19T05:35:10;101992.56;;;5.12;100.00
13734;BME280;43298;52.560;13.508;2023-04-19T05:37:37;101985.72;;;5.20;100.00
13734;BME280;43298;52.560;13.508;2023-04-19T05:40:05;101987.44;;;5.29;100.00
13734;BME280;43298;52.560;13.508;2023-04-19T05:42:33;101982.31;;;5.33;100.00
13734;BME280;43298;52.560;13.508;2023-04-19T05:44:59;101979.72;;;5.44;100.00
13734;BME280;43298;52.560;13.508;2023-04-19T05:47:25;101989.13;;;5.52;100.00
13734;BME280;43298;52.560;13.508;2023-04-19T05:49:51;101971.19;;;5.60;100.00
13734;BME280;43298;52.560;13.508;2023-04-19T05:52:16;101979.72;;;5.71;100.00
13734;BME280;43298;52.560;13.508;2023-04-19T05:54:42;101977.94;;;6.04;100.00
13734;BME280;43298;52.560;13.508;2023-04-19T05:57:09;101980.13;;;6.84;100.00
13734;BME280;43298;52.560;13.508;2023-04-19T05:59:34;101978.84;;;7.36;100.00
13734;BME280;43298;52.560;13.508;2023-04-19T06:02:00;101980.00;;;7.93;100.00
13734;BME280;43298;52.560;13.508;2023-04-19T06:04:26;101970.31;;;8.13;100.00
13734;BME280;43298;52.560;13.508;2023-04-19T06:06:52;101963.00;;;8.49;100.00
13734;BME280;43298;52.560;13.508;2023-04-19T06:09:18;101957.94;;;8.42;100.00
13734;BME280;43298;52.560;13.508;2023-04-19T06:11:44;101967.38;;;8.46;100.00
13734;BME280;43298;52.560;13.508;2023-04-19T06:14:11;101961.16;;;8.59;100.00
13734;BME280;43298;52.560;13.508;2023-04-19T06:16:38;101961.38;;;8.42;100.00
13734;BME280;43298;52.560;13.508;2023-04-19T06:19:04;101965.50;;;8.55;100.00
13734;BME280;43298;52.560;13.508;2023-04-19T06:21:32;101964.16;;;8.86;100.00
13734;BME280;43298;52.560;13.508;2023-04-19T06:23:59;101961.50;;;8.92;100.00
13734;BME280;43298;52.560;13.508;2023-04-19T06:26:25;101964.75;;;9.05;100.00
13734;BME280;43298;52.560;13.508;2023-04-19T06:28:51;101967.16;;;8.59;100.00
13734;BME280;43298;52.560;13.508;2023-04-19T06:31:16;101969.56;;;8.71;100.00
13734;BME280;43298;52.560;13.508;2023-04-19T06:33:42;101958.78;;;8.44;100.00
13734;BME280;43298;52.560;13.508;2023-04-19T06:36:08;101951.13;;;8.38;100.00
13734;BME280;43298;52.560;13.508;2023-04-19T06:38:35;101962.28;;;8.40;100.00
13734;BME280;43298;52.560;13.508;2023-04-19T06:41:03;101956.44;;;8.86;100.00
13734;BME280;43298;52.560;13.508;2023-04-19T06:43:29;101952.34;;;8.75;100.00
13734;BME280;43298;52.560;13.508;2023-04-19T06:46:02;101954.59;;;8.96;100.00
13734;BME280;43298;52.560;13.508;2023-04-19T06:48:29;101951.63;;;9.18;100.00
13734;BME280;43298;52.560;13.508;2023-04-19T06:50:55;101952.38;;;9.74;100.00
13734;BME280;43298;52.560;13.508;2023-04-19T06:53:22;101928.41;;;9.66;100.00
13734;BME280;43298;52.560;13.508;2023-04-19T06:55:48;101933.94;;;9.48;100.00
13734;BME280;43298;52.560;13.508;2023-04-19T06:58:14;101937.25;;;9.54;100.00
13734;BME280;43298;52.560;13.508;2023-04-19T07:00:39;101932.13;;;9.51;100.00
13734;BME280;43298;52.560;13.508;2023-04-19T07:03:05;101924.41;;;9.50;100.00
13734;BME280;43298;52.560;13.508;2023-04-19T07:05:31;101917.59;;;9.90;100.00
13734;BME280;43298;52.560;13.508;2023-04-19T07:07:57;101918.50;;;9.87;100.00
13734;BME280;43298;52.560;13.508;2023-04-19T07:10:23;101913.91;;;9.59;100.00
13734;BME280;43298;52.560;13.508;2023-04-19T07:12:50;101918.72;;;9.78;100.00
13734;BME280;43298;52.560;13.508;2023-04-19T07:15:16;101914.94;;;10.35;100.00
13734;BME280;43298;52.560;13.508;2023-04-19T07:17:42;101916.94;;;10.61;100.00
13734;BME280;43298;52.560;13.508;2023-04-19T07:20:08;101905.50;;;11.06;100.00
13734;BME280;43298;52.560;13.508;2023-04-19T07:22:34;101890.78;;;10.36;100.00
13734;BME280;43298;52.560;13.508;2023-04-19T07:25:00;101911.00;;;10.57;100.00
13734;BME280;43298;52.560;13.508;2023-04-19T07:27:26;101907.38;;;10.64;100.00
13734;BME280;43298;52.560;13.508;2023-04-19T07:29:52;101904.47;;;10.78;100.00
13734;BME280;43298;52.560;13.508;2023-04-19T07:32:18;101894.97;;;10.01;100.00
13734;BME280;43298;52.560;13.508;2023-04-19T07:34:44;101896.16;;;10.27;100.00
13734;BME280;43298;52.560;13.508;2023-04-19T07:37:11;101887.38;;;10.71;100.00
13734;BME280;43298;52.560;13.508;2023-04-19T07:39:38;101889.84;;;10.40;100.00
13734;BME280;43298;52.560;13.508;2023-04-19T07:42:04;101882.63;;;10.54;100.00
13734;BME280;43298;52.560;13.508;2023-04-19T07:44:30;101876.25;;;10.69;99.66
13734;BME280;43298;52.560;13.508;2023-04-19T07:46:55;101889.84;;;11.10;99.29
13734;BME280;43298;52.560;13.508;2023-04-19T07:49:21;101867.66;;;11.34;96.71
13734;BME280;43298;52.560;13.508;2023-04-19T07:51:47;101864.06;;;12.00;95.23
13734;BME280;43298;52.560;13.508;2023-04-19T07:54:13;101867.69;;;11.95;92.71
13734;BME280;43298;52.560;13.508;2023-04-19T07:56:41;101869.59;;;11.58;89.89
13734;BME280;43298;52.560;13.508;2023-04-19T07:59:06;101856.22;;;11.73;89.45
13734;BME280;43298;52.560;13.508;2023-04-19T08:01:32;101855.59;;;11.65;88.39
13734;BME280;43298;52.560;13.508;2023-04-19T08:03:58;101854.81;;;11.92;87.53
13734;BME280;43298;52.560;13.508;2023-04-19T08:06:24;101858.75;;;12.05;87.18
13734;BME280;43298;52.560;13.508;2023-04-19T08:08:51;101848.75;;;12.21;86.35
13734;BME280;43298;52.560;13.508;2023-04-19T08:11:17;101845.72;;;12.06;84.10
13734;BME280;43298;52.560;13.508;2023-04-19T08:13:43;101835.66;;;11.67;81.59
13734;BME280;43298;52.560;13.508;2023-04-19T08:16:09;101846.97;;;11.32;83.51
13734;BME280;43298;52.560;13.508;2023-04-19T08:18:34;101852.00;;;11.70;84.04
13734;BME280;43298;52.560;13.508;2023-04-19T08:21:00;101840.91;;;11.65;83.38
13734;BME280;43298;52.560;13.508;2023-04-19T08:23:26;101833.53;;;11.50;84.19
13734;BME280;43298;52.560;13.508;2023-04-19T08:25:52;101851.59;;;11.84;83.51
13734;BME280;43298;52.560;13.508;2023-04-19T08:28:18;101856.03;;;12.09;83.00
13734;BME280;43298;52.560;13.508;2023-04-19T08:30:44;101841.19;;;11.55;82.37
13734;BME280;43298;52.560;13.508;2023-04-19T08:33:09;101850.28;;;11.69;83.15
13734;BME280;43298;52.560;13.508;2023-04-19T08:35:37;101833.63;;;11.78;82.11
13734;BME280;43298;52.560;13.508;2023-04-19T08:38:06;101848.03;;;11.56;83.74
13734;BME280;43298;52.560;13.508;2023-04-19T08:40:32;101837.41;;;12.25;83.08
13734;BME280;43298;52.560;13.508;2023-04-19T08:42:58;101840.66;;;11.74;82.92
13734;BME280;43298;52.560;13.508;2023-04-19T08:45:27;101846.53;;;12.08;82.69
13734;BME280;43298;52.560;13.508;2023-04-19T08:47:55;101824.09;;;12.07;81.85
13734;BME280;43298;52.560;13.508;2023-04-19T08:50:22;101836.53;;;12.24;82.12
13734;BME280;43298;52.560;13.508;2023-04-19T08:52:48;101820.28;;;11.91;81.36
13734;BME280;43298;52.560;13.508;2023-04-19T08:55:14;101823.53;;;11.98;81.33
13734;BME280;43298;52.560;13.508;2023-04-19T08:57:40;101812.75;;;12.38;83.18
13734;BME280;43298;52.560;13.508;2023-04-19T09:00:07;101819.91;;;12.83;80.50
13734;BME280;43298;52.560;13.508;2023-04-19T09:02:51;101807.03;;;12.80;78.51
13734;BME280;43298;52.560;13.508;2023-04-19T09:05:20;101804.50;;;13.03;77.10
13734;BME280;43298;52.560;13.508;2023-04-19T09:07:47;101792.34;;;12.79;76.03
13734;BME280;43298;52.560;13.508;2023-04-19T09:10:18;101801.56;;;14.06;76.02
13734;BME280;43298;52.560;13.508;2023-04-19T09:13:03;101815.78;;;13.51;72.88
13734;BME280;43298;52.560;13.508;2023-04-19T09:15:40;101796.56;;;13.55;72.92
13734;BME280;43298;52.560;13.508;2023-04-19T09:18:08;101790.88;;;13.46;71.90
13734;BME280;43298;52.560;13.508;2023-04-19T09:20:42;101785.53;;;13.26;71.38
13734;BME280;43298;52.560;13.508;2023-04-19T09:23:14;101773.72;;;13.17;70.47
13734;BME280;43298;52.560;13.508;2023-04-19T09:28:17;101777.56;;;13.30;73.49
13734;BME280;43298;52.560;13.508;2023-04-19T09:30:43;101772.53;;;13.26;72.63
13734;BME280;43298;52.560;13.508;2023-04-19T09:33:09;101762.72;;;13.57;71.97
13734;BME280;43298;52.560;13.508;2023-04-19T09:35:44;101762.28;;;14.12;72.61
13734;BME280;43298;52.560;13.508;2023-04-19T09:38:12;101759.22;;;14.65;71.01
13734;BME280;43298;52.560;13.508;2023-04-19T09:40:39;101773.72;;;13.86;69.75
13734;BME280;43298;52.560;13.508;2023-04-19T09:43:06;101753.38;;;13.28;68.74
13734;BME280;43298;52.560;13.508;2023-04-19T09:45:43;101767.84;;;12.62;70.45
13734;BME280;43298;52.560;13.508;2023-04-19T09:48:10;101760.13;;;12.34;71.95
13734;BME280;43298;52.560;13.508;2023-04-19T09:50:53;101760.41;;;13.02;72.50
13734;BME280;43298;52.560;13.508;2023-04-19T09:53:21;101761.56;;;12.69;72.28
13734;BME280;43298;52.560;13.508;2023-04-19T09:55:47;101756.28;;;13.21;71.28
13734;BME280;43298;52.560;13.508;2023-04-19T09:58:18;101734.34;;;13.74;70.97
13734;BME280;43298;52.560;13.508;2023-04-19T10:00:45;101742.41;;;13.89;69.78
13734;BME280;43298;52.560;13.508;2023-04-19T10:03:15;101748.44;;;13.90;68.65
13734;BME280;43298;52.560;13.508;2023-04-19T10:05:43;101742.25;;;13.02;69.93
13734;BME280;43298;52.560;13.508;2023-04-19T10:08:11;101747.41;;;13.72;71.77
13734;BME280;43298;52.560;13.508;2023-04-19T10:10:41;101747.75;;;13.40;69.29
13734;BME280;43298;52.560;13.508;2023-04-19T10:13:16;101737.56;;;14.02;69.81
13734;BME280;43298;52.560;13.508;2023-04-19T10:15:43;101734.47;;;14.55;68.92
13734;BME280;43298;52.560;13.508;2023-04-19T10:18:09;101728.78;;;14.67;67.58
13734;BME280;43298;52.560;13.508;2023-04-19T10:20:46;101728.03;;;14.64;67.16
13734;BME280;43298;52.560;13.508;2023-04-19T10:23:14;101731.97;;;14.11;67.95
13734;BME280;43298;52.560;13.508;2023-04-19T10:25:45;101726.38;;;14.81;69.30
13734;BME280;43298;52.560;13.508;2023-04-19T10:28:14;101733.38;;;14.41;65.98
13734;BME280;43298;52.560;13.508;2023-04-19T10:30:59;101731.50;;;14.01;67.62
13734;BME280;43298;52.560;13.508;2023-04-19T10:33:36;101744.63;;;13.77;67.86
13734;BME280;43298;52.560;13.508;2023-04-19T10:36:03;101733.25;;;13.79;68.29
13734;BME280;43298;52.560;13.508;2023-04-19T10:38:58;101737.66;;;13.77;68.14
13734;BME280;43298;52.560;13.508;2023-04-19T10:41:55;101735.16;;;13.74;69.21
13734;BME280;43298;52.560;13.508;2023-04-19T10:44:22;101727.75;;;13.42;68.95
13734;BME280;43298;52.560;13.508;2023-04-19T10:46:47;101724.38;;;13.40;69.83
13734;BME280;43298;52.560;13.508;2023-04-19T10:49:13;101717.22;;;13.90;69.56
13734;BME280;43298;52.560;13.508;2023-04-19T10:51:39;101726.13;;;14.06;68.39
13734;BME280;43298;52.560;13.508;2023-04-19T10:54:33;101717.03;;;14.37;68.03
13734;BME280;43298;52.560;13.508;2023-04-19T10:57:07;101718.69;;;13.31;68.40
13734;BME280;43298;52.560;13.508;2023-04-19T10:59:37;101708.78;;;13.17;69.33
13734;BME280;43298;52.560;13.508;2023-04-19T11:02:26;101699.97;;;13.21;70.38
13734;BME280;43298;52.560;13.508;2023-04-19T11:04:59;101706.94;;;13.21;70.59
13734;BME280;43298;52.560;13.508;2023-04-19T11:07:25;101705.00;;;13.70;71.23
13734;BME280;43298;52.560;13.508;2023-04-19T11:09:52;101707.53;;;13.72;69.64
13734;BME280;43298;52.560;13.508;2023-04-19T11:12:19;101706.47;;;13.56;70.83
13734;BME280;43298;52.560;13.508;2023-04-19T11:14:53;101705.38;;;13.61;71.74
13734;BME280;43298;52.560;13.508;2023-04-19T11:17:24;101696.13;;;13.31;71.19
13734;BME280;43298;52.560;13.508;2023-04-19T11:20:09;101692.06;;;13.01;70.45
13734;BME280;43298;52.560;13.508;2023-04-19T11:22:39;101687.50;;;13.08;71.57
13734;BME280;43298;52.560;13.508;2023-04-19T11:27:42;101686.00;;;13.25;72.42
13734;BME280;43298;52.560;13.508;2023-04-19T11:30:13;101693.84;;;13.24;72.03
13734;BME280;43298;52.560;13.508;2023-04-19T11:32:51;101686.06;;;13.45;71.45
13734;BME280;43298;52.560;13.508;2023-04-19T11:35:27;101678.00;;;13.30;71.58
13734;BME280;43298;52.560;13.508;2023-04-19T11:37:55;101680.75;;;13.27;71.62
13734;BME280;43298;52.560;13.508;2023-04-19T11:40:24;101682.03;;;12.91;71.13
13734;BME280;43298;52.560;13.508;2023-04-19T11:42:59;101672.00;;;12.57;72.58
13734;BME280;43298;52.560;13.508;2023-04-19T11:45:26;101674.66;;;12.80;73.28
13734;BME280;43298;52.560;13.508;2023-04-19T11:47:54;101671.22;;;12.55;72.38
13734;BME280;43298;52.560;13.508;2023-04-19T11:50:39;101662.22;;;12.65;71.91
13734;BME280;43298;52.560;13.508;2023-04-19T11:55:54;101662.34;;;13.31;70.01
13734;BME280;43298;52.560;13.508;2023-04-19T11:58:36;101656.22;;;12.88;68.87
13734;BME280;43298;52.560;13.508;2023-04-19T12:01:07;101648.00;;;13.00;69.15
13734;BME280;43298;52.560;13.508;2023-04-19T12:03:36;101650.59;;;13.44;70.44
13734;BME280;43298;52.560;13.508;2023-04-19T12:06:04;101645.19;;;13.50;70.77
13734;BME280;43298;52.560;13.508;2023-04-19T12:08:36;101654.72;;;13.05;70.44
13734;BME280;43298;52.560;13.508;2023-04-19T12:11:04;101647.16;;;12.98;70.11
13734;BME280;43298;52.560;13.508;2023-04-19T12:13:31;101640.03;;;13.04;70.44
13734;BME280;43298;52.560;13.508;2023-04-19T12:15:57;101644.94;;;12.64;70.19
13734;BME280;43298;52.560;13.508;2023-04-19T12:18:24;101631.84;;;12.67;70.65
13734;BME280;43298;52.560;13.508;2023-04-19T12:20:51;101638.09;;;12.62;70.50
13734;BME280;43298;52.560;13.508;2023-04-19T12:23:19;101635.06;;;12.98;71.57
13734;BME280;43298;52.560;13.508;2023-04-19T12:25:47;101622.88;;;12.76;71.61
13734;BME280;43298;52.560;13.508;2023-04-19T12:28:14;101623.28;;;13.13;72.32
13734;BME280;43298;52.560;13.508;2023-04-19T12:30:41;101612.47;;;13.23;72.47
13734;BME280;43298;52.560;13.508;2023-04-19T12:33:08;101616.63;;;13.70;73.59
13734;BME280;43298;52.560;13.508;2023-04-19T12:35:34;101626.63;;;13.15;71.04
13734;BME280;43298;52.560;13.508;2023-04-19T12:38:00;101616.56;;;13.72;71.32
13734;BME280;43298;52.560;13.508;2023-04-19T12:40:28;101614.94;;;13.69;71.29
13734;BME280;43298;52.560;13.508;2023-04-19T12:42:54;101608.34;;;14.02;69.68
13734;BME280;43298;52.560;13.508;2023-04-19T12:45:20;101606.84;;;13.77;68.11
13734;BME280;43298;52.560;13.508;2023-04-19T12:47:47;101593.66;;;14.23;68.66
13734;BME280;43298;52.560;13.508;2023-04-19T12:50:14;101594.03;;;14.52;68.23